createdAt,value
2022-08-22T19:46:23.429Z,60.79
2022-08-22T19:47:24.000Z,60.52
2022-08-22T20:16:36.578Z,67.55
2022-08-22T20:17:37.621Z,67.58
2022-08-22T20:19:05.054Z,68.32
2022-08-22T20:19:37.492Z,68.75
2022-08-22T20:20:37.520Z,69.38
2022-08-22T20:21:39.050Z,70.53
2022-08-22T20:22:37.445Z,71.47
2022-08-22T20:23:37.499Z,72.00
2022-08-22T20:24:39.948Z,72.74
2022-08-22T20:25:43.584Z,73.35
2022-08-22T20:26:51.957Z,73.99
2022-08-22T20:27:37.468Z,74.32
2022-08-22T20:28:37.432Z,74.76
2022-08-22T20:29:37.426Z,75.16
2022-08-22T20:30:37.393Z,75.71
2022-08-22T20:31:37.364Z,75.40
2022-08-22T20:32:37.402Z,75.31
2022-08-22T20:33:37.368Z,75.60
2022-08-22T20:34:37.351Z,75.40
2022-08-22T20:35:37.380Z,75.31
2022-08-22T20:36:37.352Z,74.90
2022-08-22T20:38:03.194Z,74.29
2022-08-22T20:38:37.296Z,74.63
2022-08-22T20:39:37.357Z,74.73
2022-08-22T20:40:55.019Z,74.93
2022-08-22T20:41:37.266Z,75.17
2022-08-22T20:42:37.304Z,75.57
2022-08-22T20:43:37.347Z,76.08
2022-08-22T20:44:37.392Z,75.78
2022-08-22T20:45:37.274Z,75.78
2022-08-22T20:46:37.237Z,75.88
2022-08-22T20:47:41.714Z,76.08
2022-08-22T20:48:37.975Z,76.48
2022-08-22T20:49:37.210Z,76.79
2022-08-22T20:50:37.180Z,76.89
2022-08-22T20:51:37.367Z,77.13
2022-08-22T20:52:37.195Z,77.53
2022-08-22T20:53:37.201Z,77.84
2022-08-22T20:54:37.147Z,77.33
2022-08-22T20:55:37.129Z,77.43
2022-08-22T20:56:37.140Z,77.33
2022-08-22T20:57:37.291Z,77.33
2022-08-22T20:58:37.639Z,77.33
2022-08-22T20:59:37.109Z,77.23
2022-08-22T21:00:37.035Z,77.33
2022-08-22T21:01:37.106Z,77.43
2022-08-22T21:02:37.051Z,77.13
2022-08-22T21:03:37.070Z,77.80
2022-08-22T21:04:41.985Z,76.59
2022-08-22T21:05:36.977Z,76.48
2022-08-22T21:06:36.997Z,76.59
2022-08-22T21:07:37.022Z,76.52
2022-08-22T21:08:36.977Z,76.62
2022-08-22T21:09:36.989Z,76.59
2022-08-22T21:10:36.927Z,76.93
2022-08-22T21:11:36.942Z,76.93
2022-08-22T21:12:36.934Z,77.33
2022-08-22T21:13:36.965Z,77.73
2022-08-22T21:14:36.901Z,77.73
2022-08-22T21:15:36.885Z,77.64
2022-08-22T21:16:36.869Z,77.43
2022-08-22T21:17:39.251Z,77.43
2022-08-22T21:18:36.851Z,77.53
2022-08-22T21:19:36.897Z,77.53
2022-08-22T21:20:37.489Z,77.53
2022-08-22T21:21:36.796Z,77.29
2022-08-22T21:22:36.842Z,77.43
2022-08-22T21:23:36.799Z,77.73
2022-08-22T21:24:36.785Z,78.14
2022-08-22T21:25:36.750Z,78.04
2022-08-22T21:26:36.760Z,77.94
2022-08-22T21:27:36.757Z,77.94
2022-08-22T21:28:36.762Z,78.24
2022-08-22T21:29:36.707Z,78.14
2022-08-22T21:30:36.714Z,78.14
2022-08-22T21:31:36.692Z,77.73
2022-08-22T21:32:36.704Z,77.94
2022-08-22T21:33:36.694Z,77.84
2022-08-22T21:34:36.703Z,78.14
2022-08-22T21:35:36.677Z,78.24
2022-08-22T21:36:36.660Z,78.34
2022-08-22T21:37:36.631Z,78.64
2022-08-22T21:38:36.655Z,78.55
2022-08-22T21:39:36.689Z,78.55
2022-08-22T21:40:36.637Z,78.75
2022-08-22T21:41:36.594Z,78.95
2022-08-22T21:42:36.602Z,79.15
2022-08-22T21:43:36.588Z,79.55
2022-08-22T21:44:36.602Z,79.25
2022-08-22T21:45:36.581Z,79.15
2022-08-22T21:46:36.581Z,79.05
2022-08-22T21:47:36.522Z,79.49
2022-08-22T21:48:36.546Z,79.49
2022-08-22T21:49:36.486Z,79.49
2022-08-22T21:50:36.510Z,79.69
2022-08-22T21:51:36.551Z,79.49
2022-08-22T21:52:36.445Z,79.59
2022-08-22T21:53:36.474Z,79.79
2022-08-22T21:54:36.472Z,79.79
2022-08-22T21:55:36.446Z,79.79
2022-08-22T21:56:36.376Z,80.20
2022-08-22T21:57:36.487Z,80.50
2022-08-22T21:58:37.485Z,80.40
2022-08-22T21:59:50.516Z,80.20
2022-08-22T22:00:36.460Z,80.10
2022-08-22T22:01:36.380Z,80.50
2022-08-22T22:02:36.718Z,80.20
2022-08-22T22:03:36.526Z,80.00
2022-08-22T22:04:36.392Z,80.00
2022-08-22T22:05:36.328Z,80.00
2022-08-22T22:06:36.305Z,80.40
2022-08-22T22:07:36.301Z,78.95
2022-08-22T22:08:36.338Z,78.85
2022-08-22T22:09:36.322Z,78.55
2022-08-22T22:10:36.261Z,77.94
2022-08-22T22:11:36.271Z,77.64
2022-08-22T22:12:36.241Z,77.73
2022-08-22T22:13:36.184Z,77.50
2022-08-22T22:14:36.239Z,77.50
2022-08-22T22:15:36.280Z,77.06
2022-08-22T22:16:36.211Z,76.25
2022-08-22T22:17:36.173Z,76.79
2022-08-22T22:18:36.209Z,77.50
2022-08-22T22:19:36.212Z,77.29
2022-08-22T22:20:36.142Z,76.99
2022-08-22T22:21:36.841Z,77.53
2022-08-22T22:22:36.998Z,77.64
2022-08-22T22:23:36.156Z,78.04
2022-08-22T22:24:36.131Z,78.55
2022-08-22T22:25:39.624Z,77.70
2022-08-22T22:26:36.074Z,77.29
2022-08-22T22:27:36.136Z,77.50
2022-08-22T22:28:36.090Z,77.50
2022-08-22T22:29:36.067Z,77.29
2022-08-22T22:30:36.035Z,76.99
2022-08-22T22:31:36.023Z,77.39
2022-08-22T22:32:36.017Z,77.43
2022-08-22T22:33:36.057Z,78.04
2022-08-22T22:34:36.028Z,78.75
2022-08-22T22:35:35.994Z,79.25
2022-08-22T22:36:35.984Z,78.44
2022-08-22T22:37:36.013Z,78.64
2022-08-22T22:38:35.982Z,78.68
2022-08-22T22:39:35.988Z,79.22
2022-08-22T22:40:35.945Z,79.43
2022-08-22T22:41:35.939Z,79.67
2022-08-22T22:42:35.939Z,80.07
2022-08-22T22:43:35.917Z,80.18
2022-08-22T22:44:35.865Z,79.87
2022-08-22T22:45:35.945Z,80.18
2022-08-22T22:46:35.861Z,79.93
2022-08-22T22:47:35.871Z,79.77
2022-08-22T22:48:35.861Z,80.07
2022-08-22T22:49:35.869Z,80.38
2022-08-22T22:50:36.737Z,80.58
2022-08-22T22:51:35.836Z,80.18
2022-08-22T22:52:40.680Z,80.24
2022-08-22T22:53:40.374Z,79.93
2022-08-22T22:54:36.506Z,79.73
2022-08-22T22:55:35.770Z,79.73
2022-08-22T22:56:35.743Z,79.73
2022-08-22T22:57:41.300Z,80.24
2022-08-22T22:58:35.740Z,80.04
2022-08-22T22:59:35.781Z,80.13
2022-08-22T23:00:35.755Z,80.47
2022-08-22T23:01:35.709Z,80.88
2022-08-22T23:02:35.725Z,81.09
2022-08-22T23:03:35.705Z,81.18
2022-08-22T23:04:35.686Z,80.98
2022-08-22T23:05:35.663Z,80.94
2022-08-22T23:06:35.660Z,80.54
2022-08-22T23:07:35.621Z,80.54
2022-08-22T23:08:35.626Z,80.44
2022-08-22T23:09:38.666Z,81.45
2022-08-22T23:10:35.590Z,80.44
2022-08-22T23:11:35.610Z,80.44
2022-08-22T23:12:35.600Z,80.64
2022-08-22T23:13:36.681Z,80.54
2022-08-22T23:14:35.544Z,80.74
2022-08-22T23:15:35.615Z,81.35
2022-08-22T23:16:37.426Z,81.05
2022-08-22T23:17:35.527Z,80.44
2022-08-22T23:18:35.501Z,80.94
2022-08-22T23:19:35.508Z,80.64
2022-08-22T23:20:35.519Z,80.60
2022-08-22T23:21:35.512Z,80.50
2022-08-22T23:22:35.477Z,80.30
2022-08-22T23:23:35.463Z,79.96
2022-08-22T23:24:35.474Z,79.66
2022-08-22T23:25:35.410Z,79.25
2022-08-22T23:26:36.110Z,79.55
2022-08-22T23:27:35.435Z,79.96
2022-08-22T23:28:35.383Z,79.86
2022-08-22T23:29:35.424Z,79.52
2022-08-22T23:30:35.387Z,78.81
2022-08-22T23:31:35.388Z,78.85
2022-08-22T23:32:35.348Z,78.95
2022-08-22T23:33:35.324Z,78.75
2022-08-22T23:34:35.361Z,78.95
2022-08-22T23:35:35.324Z,79.15
2022-08-22T23:36:35.285Z,79.08
2022-08-22T23:37:35.288Z,79.90
2022-08-22T23:38:35.307Z,79.49
2022-08-22T23:39:35.264Z,79.49
2022-08-22T23:40:35.283Z,79.49
2022-08-22T23:41:35.259Z,79.59
2022-08-22T23:42:35.246Z,80.13
2022-08-22T23:43:35.195Z,80.34
2022-08-22T23:44:35.251Z,80.44
2022-08-22T23:45:35.244Z,80.74
2022-08-22T23:46:35.193Z,80.54
2022-08-22T23:47:35.178Z,80.24
2022-08-22T23:48:35.157Z,80.34
2022-08-22T23:49:35.131Z,80.34
2022-08-22T23:50:35.149Z,80.44
2022-08-22T23:51:35.171Z,80.30
2022-08-22T23:52:35.110Z,80.20
2022-08-22T23:53:35.095Z,80.10
2022-08-22T23:54:35.063Z,79.59
2022-08-22T23:55:35.086Z,79.59
2022-08-22T23:56:35.115Z,79.39
2022-08-22T23:57:35.089Z,79.49
2022-08-22T23:58:35.029Z,79.59
2022-08-22T23:59:35.067Z,79.79
